Aviation Digital Data Service (ADDS)

Output produced by METARs form (1520 UTC 23 January 2019)
found at http://www.aviationweather.gov/metar/data/
 
METAR text: KSUX 231452Z 29007KT 10SM CLR M11/M13 A2998 RMK AO2 SLP174 T11111133 56011
Conditions at: KSUX (SIOUX CITY , IA, US) observed 1452 UTC 23 January 2019
Temperature: -11.1°C (12°F)
Dewpoint: -13.3°C ( 8°F) [RH = 84%]
Pressure (altimeter): 29.98 inches Hg (1015.3 mb)
[Sea-level pressure: 1017.4 mb]
Winds: from the WNW (290 degrees) at 8 MPH (7 knots; 3.6 m/s)
Visibility: 10 or more miles (16+ km)
Ceiling: at least 12,000 feet AGL
Clouds: sky clear below 12,000 feet AGL
Weather: no significant weather observed at this time

METAR text: KSUX 231352Z 30003KT 10SM CLR M13/M15 A2999 RMK AO2 SLP177 T11281150
Conditions at: KSUX (SIOUX CITY , IA, US) observed 1352 UTC 23 January 2019
Temperature: -12.8°C ( 9°F)
Dewpoint: -15.0°C ( 5°F) [RH = 84%]
Pressure (altimeter): 29.99 inches Hg (1015.7 mb)
[Sea-level pressure: 1017.7 mb]
Winds: from the WNW (300 degrees) at 3 MPH (3 knots; 1.5 m/s)
Visibility: 10 or more miles (16+ km)
Ceiling: at least 12,000 feet AGL
Clouds: sky clear below 12,000 feet AGL
Weather: no significant weather observed at this time

METAR text: KSUX 231252Z 29006KT 10SM CLR M12/M14 A3000 RMK AO2 SLP182 T11171139
Conditions at: KSUX (SIOUX CITY , IA, US) observed 1252 UTC 23 January 2019
Temperature: -11.7°C (11°F)
Dewpoint: -13.9°C ( 7°F) [RH = 84%]
Pressure (altimeter): 30.00 inches Hg (1016.0 mb)
[Sea-level pressure: 1018.2 mb]
Winds: from the WNW (290 degrees) at 7 MPH (6 knots; 3.1 m/s)
Visibility: 10 or more miles (16+ km)
Ceiling: at least 12,000 feet AGL
Clouds: sky clear below 12,000 feet AGL
Weather: no significant weather observed at this time

METAR text: KSUX 231152Z 30005KT 10SM CLR M11/M12 A3001 RMK AO2 SLP184 T11061122 11078 21106 56010
Conditions at: KSUX (SIOUX CITY , IA, US) observed 1152 UTC 23 January 2019
Temperature: -10.6°C (13°F)
Dewpoint: -12.2°C (10°F) [RH = 88%]
Pressure (altimeter): 30.01 inches Hg (1016.3 mb)
[Sea-level pressure: 1018.4 mb]
Winds: from the WNW (300 degrees) at 6 MPH (5 knots; 2.6 m/s)
Visibility: 10 or more miles (16+ km)
Ceiling: at least 12,000 feet AGL
Clouds: sky clear below 12,000 feet AGL
Weather: no significant weather observed at this time

METAR text: KSUX 231115Z 30008KT 10SM SCT025 M09/M11 A3002 RMK AO2 T10891111
Conditions at: KSUX (SIOUX CITY , IA, US) observed 1115 UTC 23 January 2019
Temperature: -8.9°C (16°F)
Dewpoint: -11.1°C (12°F) [RH = 84%]
Pressure (altimeter): 30.02 inches Hg (1016.7 mb)
Winds: from the WNW (300 degrees) at 9 MPH (8 knots; 4.1 m/s)
Visibility: 10 or more miles (16+ km)
Ceiling: at least 12,000 feet AGL
Clouds: scattered clouds at 2500 feet AGL
Weather: no significant weather observed at this time

METAR text: KSUX 231103Z 30008KT 10SM SCT013 BKN025 M08/M11 A3002 RMK AO2 T10831106
Conditions at: KSUX (SIOUX CITY , IA, US) observed 1103 UTC 23 January 2019
Temperature: -8.3°C (17°F)
Dewpoint: -10.6°C (13°F) [RH = 83%]
Pressure (altimeter): 30.02 inches Hg (1016.7 mb)
Winds: from the WNW (300 degrees) at 9 MPH (8 knots; 4.1 m/s)
Visibility: 10 or more miles (16+ km)
Ceiling: 2500 feet AGL
Clouds: scattered clouds at 1300 feet AGL
broken clouds at 2500 feet AGL
Weather: no significant weather observed at this time

METAR text: KSUX 231052Z 31006KT 10SM BKN013 OVC027 M08/M10 A3002 RMK AO2 SLP186 T10781100
Conditions at: KSUX (SIOUX CITY , IA, US) observed 1052 UTC 23 January 2019
Temperature: -7.8°C (18°F)
Dewpoint: -10.0°C (14°F) [RH = 84%]
Pressure (altimeter): 30.02 inches Hg (1016.7 mb)
[Sea-level pressure: 1018.6 mb]
Winds: from the NW (310 degrees) at 7 MPH (6 knots; 3.1 m/s)
Visibility: 10 or more miles (16+ km)
Ceiling: 1300 feet AGL
Clouds: broken clouds at 1300 feet AGL
overcast cloud deck at 2700 feet AGL
Weather: no significant weather observed at this time

METAR text: KSUX 231035Z 32007KT 10SM BKN014 OVC030 M08/M10 A3003 RMK AO2 T10781100
Conditions at: KSUX (SIOUX CITY , IA, US) observed 1035 UTC 23 January 2019
Temperature: -7.8°C (18°F)
Dewpoint: -10.0°C (14°F) [RH = 84%]
Pressure (altimeter): 30.03 inches Hg (1017.0 mb)
Winds: from the NW (320 degrees) at 8 MPH (7 knots; 3.6 m/s)
Visibility: 10 or more miles (16+ km)
Ceiling: 1400 feet AGL
Clouds: broken clouds at 1400 feet AGL
overcast cloud deck at 3000 feet AGL
Weather: no significant weather observed at this time

METAR text: KSUX 230952Z 32011KT 10SM OVC033 M08/M11 A3004 RMK AO2 SLP190 T10831106
Conditions at: KSUX (SIOUX CITY , IA, US) observed 0952 UTC 23 January 2019
Temperature: -8.3°C (17°F)
Dewpoint: -10.6°C (13°F) [RH = 83%]
Pressure (altimeter): 30.04 inches Hg (1017.4 mb)
[Sea-level pressure: 1019.0 mb]
Winds: from the NW (320 degrees) at 13 MPH (11 knots; 5.7 m/s)
Visibility: 10 or more miles (16+ km)
Ceiling: 3300 feet AGL
Clouds: overcast cloud deck at 3300 feet AGL
Weather: no significant weather observed at this time

METAR text: KSUX 230852Z 32009KT 10SM OVC037 M08/M11 A3005 RMK AO2 SLP193 T10831106 55005
Conditions at: KSUX (SIOUX CITY , IA, US) observed 0852 UTC 23 January 2019
Temperature: -8.3°C (17°F)
Dewpoint: -10.6°C (13°F) [RH = 83%]
Pressure (altimeter): 30.05 inches Hg (1017.7 mb)
[Sea-level pressure: 1019.3 mb]
Winds: from the NW (320 degrees) at 10 MPH (9 knots; 4.6 m/s)
Visibility: 10 or more miles (16+ km)
Ceiling: 3700 feet AGL
Clouds: overcast cloud deck at 3700 feet AGL
Weather: no significant weather observed at this time

METAR text: KSUX 230752Z 33009KT 8SM SCT017 OVC035 M08/M11 A3004 RMK AO2 SLP192 T10831111
Conditions at: KSUX (SIOUX CITY , IA, US) observed 0752 UTC 23 January 2019
Temperature: -8.3°C (17°F)
Dewpoint: -11.1°C (12°F) [RH = 80%]
Pressure (altimeter): 30.04 inches Hg (1017.4 mb)
[Sea-level pressure: 1019.2 mb]
Winds: from the NNW (330 degrees) at 10 MPH (9 knots; 4.6 m/s)
Visibility: 8 miles (13 km)
Ceiling: 3500 feet AGL
Clouds: scattered clouds at 1700 feet AGL
overcast cloud deck at 3500 feet AGL
Weather: no significant weather observed at this time

METAR text: KSUX 230742Z 33012KT 8SM SCT017 OVC035 M08/M11 A3004 RMK AO2 T10831111
Conditions at: KSUX (SIOUX CITY , IA, US) observed 0742 UTC 23 January 2019
Temperature: -8.3°C (17°F)
Dewpoint: -11.1°C (12°F) [RH = 80%]
Pressure (altimeter): 30.04 inches Hg (1017.4 mb)
Winds: from the NNW (330 degrees) at 14 MPH (12 knots; 6.2 m/s)
Visibility: 8 miles (13 km)
Ceiling: 3500 feet AGL
Clouds: scattered clouds at 1700 feet AGL
overcast cloud deck at 3500 feet AGL
Weather: no significant weather observed at this time

METAR text: KSUX 230728Z 33010KT 8SM BKN017 OVC035 M08/M11 A3005 RMK AO2 T10831111
Conditions at: KSUX (SIOUX CITY , IA, US) observed 0728 UTC 23 January 2019
Temperature: -8.3°C (17°F)
Dewpoint: -11.1°C (12°F) [RH = 80%]
Pressure (altimeter): 30.05 inches Hg (1017.7 mb)
Winds: from the NNW (330 degrees) at 12 MPH (10 knots; 5.1 m/s)
Visibility: 8 miles (13 km)
Ceiling: 1700 feet AGL
Clouds: broken clouds at 1700 feet AGL
overcast cloud deck at 3500 feet AGL
Weather: no significant weather observed at this time

METAR text: KSUX 230652Z 34009KT 10SM OVC035 M08/M11 A3005 RMK AO2 SLP195 T10831111
Conditions at: KSUX (SIOUX CITY , IA, US) observed 0652 UTC 23 January 2019
Temperature: -8.3°C (17°F)
Dewpoint: -11.1°C (12°F) [RH = 80%]
Pressure (altimeter): 30.05 inches Hg (1017.7 mb)
[Sea-level pressure: 1019.5 mb]
Winds: from the NNW (340 degrees) at 10 MPH (9 knots; 4.6 m/s)
Visibility: 10 or more miles (16+ km)
Ceiling: 3500 feet AGL
Clouds: overcast cloud deck at 3500 feet AGL
Weather: no significant weather observed at this time

METAR text: KSUX 230552Z 34011KT 10SM OVC035 M09/M12 A3006 RMK AO2 SLP199 T10891117 11089 21100 410501100 56007
Conditions at: KSUX (SIOUX CITY , IA, US) observed 0552 UTC 23 January 2019
Temperature: -8.9°C (16°F)
Dewpoint: -11.7°C (11°F) [RH = 80%]
Pressure (altimeter): 30.06 inches Hg (1018.0 mb)
[Sea-level pressure: 1019.9 mb]
Winds: from the NNW (340 degrees) at 13 MPH (11 knots; 5.7 m/s)
Visibility: 10 or more miles (16+ km)
Ceiling: 3500 feet AGL
Clouds: overcast cloud deck at 3500 feet AGL
Weather: no significant weather observed at this time

METAR text: KSUX 230452Z 34012KT 10SM OVC037 M09/M12 A3007 RMK AO2 SLP202 T10891122
Conditions at: KSUX (SIOUX CITY , IA, US) observed 0452 UTC 23 January 2019
Temperature: -8.9°C (16°F)
Dewpoint: -12.2°C (10°F) [RH = 77%]
Pressure (altimeter): 30.07 inches Hg (1018.4 mb)
[Sea-level pressure: 1020.2 mb]
Winds: from the NNW (340 degrees) at 14 MPH (12 knots; 6.2 m/s)
Visibility: 10 or more miles (16+ km)
Ceiling: 3700 feet AGL
Clouds: overcast cloud deck at 3700 feet AGL
Weather: no significant weather observed at this time

METAR text: KSUX 230352Z 34011KT 10SM OVC033 M09/M12 A3007 RMK AO2 PRESFR SLP203 T10941117
Conditions at: KSUX (SIOUX CITY , IA, US) observed 0352 UTC 23 January 2019
Temperature: -9.4°C (15°F)
Dewpoint: -11.7°C (11°F) [RH = 83%]
Pressure (altimeter): 30.07 inches Hg (1018.4 mb)
[Sea-level pressure: 1020.3 mb]
Winds: from the NNW (340 degrees) at 13 MPH (11 knots; 5.7 m/s)
Visibility: 10 or more miles (16+ km)
Ceiling: 3300 feet AGL
Clouds: overcast cloud deck at 3300 feet AGL
Weather: no significant weather observed at this time

METAR text: KSUX 230252Z 33010KT 10SM CLR M10/M12 A3008 RMK AO2 SLP206 T11001122 50012
Conditions at: KSUX (SIOUX CITY , IA, US) observed 0252 UTC 23 January 2019
Temperature: -10.0°C (14°F)
Dewpoint: -12.2°C (10°F) [RH = 84%]
Pressure (altimeter): 30.08 inches Hg (1018.7 mb)
[Sea-level pressure: 1020.6 mb]
Winds: from the NNW (330 degrees) at 12 MPH (10 knots; 5.1 m/s)
Visibility: 10 or more miles (16+ km)
Ceiling: at least 12,000 feet AGL
Clouds: sky clear below 12,000 feet AGL
Weather: no significant weather observed at this time

METAR text: KSUX 230210Z 34010KT 10SM SCT023 M10/M12 A3007 RMK AO2 T11001122
Conditions at: KSUX (SIOUX CITY , IA, US) observed 0210 UTC 23 January 2019
Temperature: -10.0°C (14°F)
Dewpoint: -12.2°C (10°F) [RH = 84%]
Pressure (altimeter): 30.07 inches Hg (1018.4 mb)
Winds: from the NNW (340 degrees) at 12 MPH (10 knots; 5.1 m/s)
Visibility: 10 or more miles (16+ km)
Ceiling: at least 12,000 feet AGL
Clouds: scattered clouds at 2300 feet AGL
Weather: no significant weather observed at this time

METAR text: KSUX 230152Z 33011KT 10SM OVC023 M09/M12 A3010 RMK AO2 SLP212 T10941122
Conditions at: KSUX (SIOUX CITY , IA, US) observed 0152 UTC 23 January 2019
Temperature: -9.4°C (15°F)
Dewpoint: -12.2°C (10°F) [RH = 80%]
Pressure (altimeter): 30.10 inches Hg (1019.4 mb)
[Sea-level pressure: 1021.2 mb]
Winds: from the NNW (330 degrees) at 13 MPH (11 knots; 5.7 m/s)
Visibility: 10 or more miles (16+ km)
Ceiling: 2300 feet AGL
Clouds: overcast cloud deck at 2300 feet AGL
Weather: no significant weather observed at this time

METAR text: KSUX 230052Z 34016KT 10SM OVC022 M09/M12 A3007 RMK AO2 SLP202 T10891122
Conditions at: KSUX (SIOUX CITY , IA, US) observed 0052 UTC 23 January 2019
Temperature: -8.9°C (16°F)
Dewpoint: -12.2°C (10°F) [RH = 77%]
Pressure (altimeter): 30.07 inches Hg (1018.4 mb)
[Sea-level pressure: 1020.2 mb]
Winds: from the NNW (340 degrees) at 18 MPH (16 knots; 8.2 m/s)
Visibility: 10 or more miles (16+ km)
Ceiling: 2200 feet AGL
Clouds: overcast cloud deck at 2200 feet AGL
Weather: no significant weather observed at this time

METAR text: KSUX 222352Z 34016G21KT 10SM OVC020 M09/M12 A3005 RMK AO2 SNE24 SLP194 P0000 60000 T10891117 11050 21089 53005
Conditions at: KSUX (SIOUX CITY , IA, US) observed 2352 UTC 22 January 2019
Temperature: -8.9°C (16°F)
Dewpoint: -11.7°C (11°F) [RH = 80%]
Pressure (altimeter): 30.05 inches Hg (1017.7 mb)
[Sea-level pressure: 1019.4 mb]
Winds: from the NNW (340 degrees) at 18 MPH (16 knots; 8.2 m/s)
gusting to 24 MPH (21 knots; 10.8 m/s)
Visibility: 10 or more miles (16+ km)
Ceiling: 2000 feet AGL
Clouds: overcast cloud deck at 2000 feet AGL
Weather: no significant weather observed at this time

METAR text: KSUX 222252Z 33018KT 4SM -SN OVC020 M08/M11 A3003 RMK AO2 SNB2158E10B31 SLP187 P0000 T10781106
Conditions at: KSUX (SIOUX CITY , IA, US) observed 2252 UTC 22 January 2019
Temperature: -7.8°C (18°F)
Dewpoint: -10.6°C (13°F) [RH = 80%]
Pressure (altimeter): 30.03 inches Hg (1017.0 mb)
[Sea-level pressure: 1018.7 mb]
Winds: from the NNW (330 degrees) at 21 MPH (18 knots; 9.3 m/s)
Visibility: 4 miles ( 6 km)
Ceiling: 2000 feet AGL
Clouds: overcast cloud deck at 2000 feet AGL
Weather: -SN  (light snow)

METAR text: KSUX 222152Z 33018G26KT 7SM OVC016 M07/M10 A3002 RMK AO2 PK WND 33026/2144 SLP182 T10721100
Conditions at: KSUX (SIOUX CITY , IA, US) observed 2152 UTC 22 January 2019
Temperature: -7.2°C (19°F)
Dewpoint: -10.0°C (14°F) [RH = 80%]
Pressure (altimeter): 30.02 inches Hg (1016.7 mb)
[Sea-level pressure: 1018.2 mb]
Winds: from the NNW (330 degrees) at 21 MPH (18 knots; 9.3 m/s)
gusting to 30 MPH (26 knots; 13.4 m/s)
Visibility: 7 miles (11 km)
Ceiling: 1600 feet AGL
Clouds: overcast cloud deck at 1600 feet AGL
Weather: no significant weather observed at this time

METAR text: KSUX 222052Z 33016KT 9SM OVC015 M07/M08 A3003 RMK AO2 PK WND 33029/1957 SLP188 T10671083 55003
Conditions at: KSUX (SIOUX CITY , IA, US) observed 2052 UTC 22 January 2019
Temperature: -6.7°C (20°F)
Dewpoint: -8.3°C (17°F) [RH = 88%]
Pressure (altimeter): 30.03 inches Hg (1017.0 mb)
[Sea-level pressure: 1018.8 mb]
Winds: from the NNW (330 degrees) at 18 MPH (16 knots; 8.2 m/s)
Visibility: 9 miles (14 km)
Ceiling: 1500 feet AGL
Clouds: overcast cloud deck at 1500 feet AGL
Weather: no significant weather observed at this time

METAR text: KSUX 222031Z 33017KT 8SM OVC016 M07/M09 A3001 RMK AO2 PK WND 33029/1957 T10671089
Conditions at: KSUX (SIOUX CITY , IA, US) observed 2031 UTC 22 January 2019
Temperature: -6.7°C (20°F)
Dewpoint: -8.9°C (16°F) [RH = 84%]
Pressure (altimeter): 30.01 inches Hg (1016.3 mb)
Winds: from the NNW (330 degrees) at 20 MPH (17 knots; 8.7 m/s)
Visibility: 8 miles (13 km)
Ceiling: 1600 feet AGL
Clouds: overcast cloud deck at 1600 feet AGL
Weather: no significant weather observed at this time

METAR text: KSUX 222017Z 32018KT 8SM OVC014 M07/M09 A3001 RMK AO2 PK WND 33029/1957 T10671089
Conditions at: KSUX (SIOUX CITY , IA, US) observed 2017 UTC 22 January 2019
Temperature: -6.7°C (20°F)
Dewpoint: -8.9°C (16°F) [RH = 84%]
Pressure (altimeter): 30.01 inches Hg (1016.3 mb)
Winds: from the NW (320 degrees) at 21 MPH (18 knots; 9.3 m/s)
Visibility: 8 miles (13 km)
Ceiling: 1400 feet AGL
Clouds: overcast cloud deck at 1400 feet AGL
Weather: no significant weather observed at this time

METAR text: KSUX 221952Z 33018G26KT 6SM BR BKN015 OVC025 M06/M08 A3001 RMK AO2 PK WND 32026/1945 SLP178 T10611083
Conditions at: KSUX (SIOUX CITY , IA, US) observed 1952 UTC 22 January 2019
Temperature: -6.1°C (21°F)
Dewpoint: -8.3°C (17°F) [RH = 84%]
Pressure (altimeter): 30.01 inches Hg (1016.3 mb)
[Sea-level pressure: 1017.8 mb]
Winds: from the NNW (330 degrees) at 21 MPH (18 knots; 9.3 m/s)
gusting to 30 MPH (26 knots; 13.4 m/s)
Visibility: 6 miles (10 km)
Ceiling: 1500 feet AGL
Clouds: broken clouds at 1500 feet AGL
overcast cloud deck at 2500 feet AGL
Weather: BR  (mist)

METAR text: KSUX 221852Z 34014KT 6SM HZ OVC018 M06/M08 A3004 RMK AO2 SLP190 T10561083
Conditions at: KSUX (SIOUX CITY , IA, US) observed 1852 UTC 22 January 2019
Temperature: -5.6°C (22°F)
Dewpoint: -8.3°C (17°F) [RH = 81%]
Pressure (altimeter): 30.04 inches Hg (1017.4 mb)
[Sea-level pressure: 1019.0 mb]
Winds: from the NNW (340 degrees) at 16 MPH (14 knots; 7.2 m/s)
Visibility: 6 miles (10 km)
Ceiling: 1800 feet AGL
Clouds: overcast cloud deck at 1800 feet AGL
Weather: HZ  (haze)

METAR text: KSUX 221752Z 34016KT 10SM OVC017 M06/M08 A3004 RMK AO2 SLP190 T10561083 11056 21061 51025
Conditions at: KSUX (SIOUX CITY , IA, US) observed 1752 UTC 22 January 2019
Temperature: -5.6°C (22°F)
Dewpoint: -8.3°C (17°F) [RH = 81%]
Pressure (altimeter): 30.04 inches Hg (1017.4 mb)
[Sea-level pressure: 1019.0 mb]
Winds: from the NNW (340 degrees) at 18 MPH (16 knots; 8.2 m/s)
Visibility: 10 or more miles (16+ km)
Ceiling: 1700 feet AGL
Clouds: overcast cloud deck at 1700 feet AGL
Weather: no significant weather observed at this time

METAR text: KSUX 221652Z 35014G22KT 10SM OVC017 M06/M08 A3004 RMK AO2 SLP188 T10561083
Conditions at: KSUX (SIOUX CITY , IA, US) observed 1652 UTC 22 January 2019
Temperature: -5.6°C (22°F)
Dewpoint: -8.3°C (17°F) [RH = 81%]
Pressure (altimeter): 30.04 inches Hg (1017.4 mb)
[Sea-level pressure: 1018.8 mb]
Winds: from the N (350 degrees) at 16 MPH (14 knots; 7.2 m/s)
gusting to 25 MPH (22 knots; 11.3 m/s)
Visibility: 10 or more miles (16+ km)
Ceiling: 1700 feet AGL
Clouds: overcast cloud deck at 1700 feet AGL
Weather: no significant weather observed at this time

METAR text: KSUX 221552Z 34012KT 9SM BKN015 OVC020 M06/M07 A2999 RMK AO2 SLP174 T10561072
Conditions at: KSUX (SIOUX CITY , IA, US) observed 1552 UTC 22 January 2019
Temperature: -5.6°C (22°F)
Dewpoint: -7.2°C (19°F) [RH = 88%]
Pressure (altimeter): 29.99 inches Hg (1015.7 mb)
[Sea-level pressure: 1017.4 mb]
Winds: from the NNW (340 degrees) at 14 MPH (12 knots; 6.2 m/s)
Visibility: 9 miles (14 km)
Ceiling: 1500 feet AGL
Clouds: broken clouds at 1500 feet AGL
overcast cloud deck at 2000 feet AGL
Weather: no significant weather observed at this time

METAR text: KSUX 221533Z 34013KT 9SM BKN015 OVC022 M06/M08 A2998 RMK AO2 T10561078
Conditions at: KSUX (SIOUX CITY , IA, US) observed 1533 UTC 22 January 2019
Temperature: -5.6°C (22°F)
Dewpoint: -7.8°C (18°F) [RH = 84%]
Pressure (altimeter): 29.98 inches Hg (1015.3 mb)
Winds: from the NNW (340 degrees) at 15 MPH (13 knots; 6.7 m/s)
Visibility: 9 miles (14 km)
Ceiling: 1500 feet AGL
Clouds: broken clouds at 1500 feet AGL
overcast cloud deck at 2200 feet AGL
Weather: no significant weather observed at this time

METAR text: KSUX 221452Z 34010KT 6SM BR OVC010 M06/M07 A2997 RMK AO2 SLP166 T10561072 51017
Conditions at: KSUX (SIOUX CITY , IA, US) observed 1452 UTC 22 January 2019
Temperature: -5.6°C (22°F)
Dewpoint: -7.2°C (19°F) [RH = 88%]
Pressure (altimeter): 29.97 inches Hg (1015.0 mb)
[Sea-level pressure: 1016.6 mb]
Winds: from the NNW (340 degrees) at 12 MPH (10 knots; 5.1 m/s)
Visibility: 6 miles (10 km)
Ceiling: 1000 feet AGL
Clouds: overcast cloud deck at 1000 feet AGL
Weather: BR  (mist)

METAR text: KSUX 221407Z 34009KT 8SM OVC012 M06/M07 A2996 RMK AO2 T10611072
Conditions at: KSUX (SIOUX CITY , IA, US) observed 1407 UTC 22 January 2019
Temperature: -6.1°C (21°F)
Dewpoint: -7.2°C (19°F) [RH = 92%]
Pressure (altimeter): 29.96 inches Hg (1014.6 mb)
Winds: from the NNW (340 degrees) at 10 MPH (9 knots; 4.6 m/s)
Visibility: 8 miles (13 km)
Ceiling: 1200 feet AGL
Clouds: overcast cloud deck at 1200 feet AGL
Weather: no significant weather observed at this time

METAR text: KSUX 221352Z 33009KT 8SM BKN008 OVC012 M06/M07 A2996 RMK AO2 CIG 007V010 SLP162 T10611072
Conditions at: KSUX (SIOUX CITY , IA, US) observed 1352 UTC 22 January 2019
Temperature: -6.1°C (21°F)
Dewpoint: -7.2°C (19°F) [RH = 92%]
Pressure (altimeter): 29.96 inches Hg (1014.6 mb)
[Sea-level pressure: 1016.2 mb]
Winds: from the NNW (330 degrees) at 10 MPH (9 knots; 4.6 m/s)
Visibility: 8 miles (13 km)
Ceiling: 800 feet AGL
Clouds: broken clouds at 800 feet AGL
overcast cloud deck at 1200 feet AGL
Weather: no significant weather observed at this time

METAR text: KSUX 221342Z 35006KT 7SM OVC008 M06/M07 A2995 RMK AO2 CIG 007V012 T10611072
Conditions at: KSUX (SIOUX CITY , IA, US) observed 1342 UTC 22 January 2019
Temperature: -6.1°C (21°F)
Dewpoint: -7.2°C (19°F) [RH = 92%]
Pressure (altimeter): 29.95 inches Hg (1014.3 mb)
Winds: from the N (350 degrees) at 7 MPH (6 knots; 3.1 m/s)
Visibility: 7 miles (11 km)
Ceiling: 800 feet AGL
Clouds: overcast cloud deck at 800 feet AGL
Weather: no significant weather observed at this time

METAR text: KSUX 221328Z 36007KT 7SM OVC010 M06/M07 A2994 RMK AO2 T10611072
Conditions at: KSUX (SIOUX CITY , IA, US) observed 1328 UTC 22 January 2019
Temperature: -6.1°C (21°F)
Dewpoint: -7.2°C (19°F) [RH = 92%]
Pressure (altimeter): 29.94 inches Hg (1014.0 mb)
Winds: from the N (360 degrees) at 8 MPH (7 knots; 3.6 m/s)
Visibility: 7 miles (11 km)
Ceiling: 1000 feet AGL
Clouds: overcast cloud deck at 1000 feet AGL
Weather: no significant weather observed at this time

METAR text: KSUX 221252Z 35006KT 8SM OVC008 M06/M07 A2994 RMK AO2 CIG 007V013 SLP156 T10611072
Conditions at: KSUX (SIOUX CITY , IA, US) observed 1252 UTC 22 January 2019
Temperature: -6.1°C (21°F)
Dewpoint: -7.2°C (19°F) [RH = 92%]
Pressure (altimeter): 29.94 inches Hg (1014.0 mb)
[Sea-level pressure: 1015.6 mb]
Winds: from the N (350 degrees) at 7 MPH (6 knots; 3.1 m/s)
Visibility: 8 miles (13 km)
Ceiling: 800 feet AGL
Clouds: overcast cloud deck at 800 feet AGL
Weather: no significant weather observed at this time

METAR text: KSUX 221152Z AUTO 36006KT 4SM BR OVC006 M06/M07 A2992 RMK AO2 CIG 005V011 PRESRR SLP147 60001 70001 I1001 I6007 T10611072 11056 21061 53009
Conditions at: KSUX (SIOUX CITY , IA, US) observed 1152 UTC 22 January 2019
Temperature: -6.1°C (21°F)
Dewpoint: -7.2°C (19°F) [RH = 92%]
Pressure (altimeter): 29.92 inches Hg (1013.3 mb)
[Sea-level pressure: 1014.7 mb]
Winds: from the N (360 degrees) at 7 MPH (6 knots; 3.1 m/s)
Visibility: 4 miles ( 6 km)
Ceiling: 600 feet AGL
Clouds: overcast cloud deck at 600 feet AGL
Weather: BR  (mist)

METAR text: KSUX 221052Z AUTO 02005KT 3SM BR OVC006 M06/M07 A2989 RMK AO2 SLP139 I1000 T10561067
Conditions at: KSUX (SIOUX CITY , IA, US) observed 1052 UTC 22 January 2019
Temperature: -5.6°C (22°F)
Dewpoint: -6.7°C (20°F) [RH = 92%]
Pressure (altimeter): 29.89 inches Hg (1012.3 mb)
[Sea-level pressure: 1013.9 mb]
Winds: from the NNE (20 degrees) at 6 MPH (5 knots; 2.6 m/s)
Visibility: 3 miles ( 5 km)
Ceiling: 600 feet AGL
Clouds: overcast cloud deck at 600 feet AGL
Weather: BR  (mist)

METAR text: KSUX 220952Z AUTO 02006KT 3SM BR BKN006 OVC010 M06/M07 A2989 RMK AO2 SLP137 I1002 T10561067
Conditions at: KSUX (SIOUX CITY , IA, US) observed 0952 UTC 22 January 2019
Temperature: -5.6°C (22°F)
Dewpoint: -6.7°C (20°F) [RH = 92%]
Pressure (altimeter): 29.89 inches Hg (1012.3 mb)
[Sea-level pressure: 1013.7 mb]
Winds: from the NNE (20 degrees) at 7 MPH (6 knots; 3.1 m/s)
Visibility: 3 miles ( 5 km)
Ceiling: 600 feet AGL
Clouds: broken clouds at 600 feet AGL
overcast cloud deck at 1000 feet AGL
Weather: BR  (mist)

METAR text: KSUX 220852Z AUTO 03004KT 3SM BR OVC007 M06/M07 A2989 RMK AO2 CIG 004V010 SLP137 60001 I1001 I3004 T10561067 53009
Conditions at: KSUX (SIOUX CITY , IA, US) observed 0852 UTC 22 January 2019
Temperature: -5.6°C (22°F)
Dewpoint: -6.7°C (20°F) [RH = 92%]
Pressure (altimeter): 29.89 inches Hg (1012.3 mb)
[Sea-level pressure: 1013.7 mb]
Winds: from the NNE (30 degrees) at 5 MPH (4 knots; 2.1 m/s)
Visibility: 3 miles ( 5 km)
Ceiling: 700 feet AGL
Clouds: overcast cloud deck at 700 feet AGL
Weather: BR  (mist)

METAR text: KSUX 220807Z AUTO 04005KT 3SM BR BKN006 OVC015 M06/M07 A2987 RMK AO2 CIG 005V008 T10561067
Conditions at: KSUX (SIOUX CITY , IA, US) observed 0807 UTC 22 January 2019
Temperature: -5.6°C (22°F)
Dewpoint: -6.7°C (20°F) [RH = 92%]
Pressure (altimeter): 29.87 inches Hg (1011.6 mb)
Winds: from the NE (40 degrees) at 6 MPH (5 knots; 2.6 m/s)
Visibility: 3 miles ( 5 km)
Ceiling: 600 feet AGL
Clouds: broken clouds at 600 feet AGL
overcast cloud deck at 1500 feet AGL
Weather: BR  (mist)

METAR text: KSUX 220752Z AUTO 07005KT 3SM BR FEW006 OVC015 M06/M07 A2987 RMK AO2 SLP132 P0001 I1002 T10561067
Conditions at: KSUX (SIOUX CITY , IA, US) observed 0752 UTC 22 January 2019
Temperature: -5.6°C (22°F)
Dewpoint: -6.7°C (20°F) [RH = 92%]
Pressure (altimeter): 29.87 inches Hg (1011.6 mb)
[Sea-level pressure: 1013.2 mb]
Winds: from the ENE (70 degrees) at 6 MPH (5 knots; 2.6 m/s)
Visibility: 3 miles ( 5 km)
Ceiling: 1500 feet AGL
Clouds: few clouds at 600 feet AGL
overcast cloud deck at 1500 feet AGL
Weather: BR  (mist)

METAR text: KSUX 220713Z AUTO 07005KT 4SM BR FEW008 BKN020 OVC035 M06/M07 A2987 RMK AO2 P0001 I1001 T10561067
Conditions at: KSUX (SIOUX CITY , IA, US) observed 0713 UTC 22 January 2019
Temperature: -5.6°C (22°F)
Dewpoint: -6.7°C (20°F) [RH = 92%]
Pressure (altimeter): 29.87 inches Hg (1011.6 mb)
Winds: from the ENE (70 degrees) at 6 MPH (5 knots; 2.6 m/s)
Visibility: 4 miles ( 6 km)
Ceiling: 2000 feet AGL
Clouds: few clouds at 800 feet AGL
broken clouds at 2000 feet AGL
overcast cloud deck at 3500 feet AGL
Weather: BR  (mist)

METAR text: KSUX 220652Z AUTO 10006KT 4SM BR BKN020 OVC035 M06/M07 A2986 RMK AO2 FZRAB31E46 SLP130 P0000 I1001 T10561067
Conditions at: KSUX (SIOUX CITY , IA, US) observed 0652 UTC 22 January 2019
Temperature: -5.6°C (22°F)
Dewpoint: -6.7°C (20°F) [RH = 92%]
Pressure (altimeter): 29.86 inches Hg (1011.3 mb)
[Sea-level pressure: 1013.0 mb]
Winds: from the E (100 degrees) at 7 MPH (6 knots; 3.1 m/s)
Visibility: 4 miles ( 6 km)
Ceiling: 2000 feet AGL
Clouds: broken clouds at 2000 feet AGL
overcast cloud deck at 3500 feet AGL
Weather: BR  (mist)

METAR text: KSUX 220637Z AUTO 10007KT 4SM -FZRA BR BKN019 OVC034 M06/M07 A2986 RMK AO2 FZRAB31 P0000 I1001 T10561072
Conditions at: KSUX (SIOUX CITY , IA, US) observed 0637 UTC 22 January 2019
Temperature: -5.6°C (22°F)
Dewpoint: -7.2°C (19°F) [RH = 88%]
Pressure (altimeter): 29.86 inches Hg (1011.3 mb)
Winds: from the E (100 degrees) at 8 MPH (7 knots; 3.6 m/s)
Visibility: 4 miles ( 6 km)
Ceiling: 1900 feet AGL
Clouds: broken clouds at 1900 feet AGL
overcast cloud deck at 3400 feet AGL
Weather: -FZRA BR  (light freezing rain, mist)

METAR text: KSUX 220616Z AUTO 09004KT 9SM BKN020 OVC034 M06/M07 A2986 RMK AO2 T10561072
Conditions at: KSUX (SIOUX CITY , IA, US) observed 0616 UTC 22 January 2019
Temperature: -5.6°C (22°F)
Dewpoint: -7.2°C (19°F) [RH = 88%]
Pressure (altimeter): 29.86 inches Hg (1011.3 mb)
Winds: from the E (90 degrees) at 5 MPH (4 knots; 2.1 m/s)
Visibility: 9 miles (14 km)
Ceiling: 2000 feet AGL
Clouds: broken clouds at 2000 feet AGL
overcast cloud deck at 3400 feet AGL
Weather: automated observation with no human augmentation;
there may or may not be significant weather present at this time

METAR text: KSUX 220552Z AUTO 12008KT 10SM FEW020 OVC036 M06/M08 A2986 RMK AO2 SLP128 I6001 T10611078 11056 21067 410441122 55003
Conditions at: KSUX (SIOUX CITY , IA, US) observed 0552 UTC 22 January 2019
Temperature: -6.1°C (21°F)
Dewpoint: -7.8°C (18°F) [RH = 88%]
Pressure (altimeter): 29.86 inches Hg (1011.3 mb)
[Sea-level pressure: 1012.8 mb]
Winds: from the ESE (120 degrees) at 9 MPH (8 knots; 4.1 m/s)
Visibility: 10 or more miles (16+ km)
Ceiling: 3600 feet AGL
Clouds: few clouds at 2000 feet AGL
overcast cloud deck at 3600 feet AGL
Weather: automated observation with no human augmentation;
there may or may not be significant weather present at this time

METAR text: KSUX 220452Z AUTO 13014KT 6SM BR FEW021 OVC036 M06/M08 A2985 RMK AO2 SLP125 I1001 T10611083
Conditions at: KSUX (SIOUX CITY , IA, US) observed 0452 UTC 22 January 2019
Temperature: -6.1°C (21°F)
Dewpoint: -8.3°C (17°F) [RH = 84%]
Pressure (altimeter): 29.85 inches Hg (1010.9 mb)
[Sea-level pressure: 1012.5 mb]
Winds: from the SE (130 degrees) at 16 MPH (14 knots; 7.2 m/s)
Visibility: 6 miles (10 km)
Ceiling: 3600 feet AGL
Clouds: few clouds at 2100 feet AGL
overcast cloud deck at 3600 feet AGL
Weather: BR  (mist)

METAR text: KSUX 220352Z AUTO 13014KT 5SM BR FEW014 SCT022 OVC033 M07/M08 A2986 RMK AO2 SLP129 T10671083
Conditions at: KSUX (SIOUX CITY , IA, US) observed 0352 UTC 22 January 2019
Temperature: -6.7°C (20°F)
Dewpoint: -8.3°C (17°F) [RH = 88%]
Pressure (altimeter): 29.86 inches Hg (1011.3 mb)
[Sea-level pressure: 1012.9 mb]
Winds: from the SE (130 degrees) at 16 MPH (14 knots; 7.2 m/s)
Visibility: 5 miles ( 8 km)
Ceiling: 3300 feet AGL
Clouds: few clouds at 1400 feet AGL
scattered clouds at 2200 feet AGL
overcast cloud deck at 3300 feet AGL
Weather: BR  (mist)

METAR text: KSUX 220338Z AUTO 12012KT 6SM BR SCT014 BKN020 OVC031 M07/M08 A2987 RMK AO2 T10671083
Conditions at: KSUX (SIOUX CITY , IA, US) observed 0338 UTC 22 January 2019
Temperature: -6.7°C (20°F)
Dewpoint: -8.3°C (17°F) [RH = 88%]
Pressure (altimeter): 29.87 inches Hg (1011.6 mb)
Winds: from the ESE (120 degrees) at 14 MPH (12 knots; 6.2 m/s)
Visibility: 6 miles (10 km)
Ceiling: 2000 feet AGL
Clouds: scattered clouds at 1400 feet AGL
broken clouds at 2000 feet AGL
overcast cloud deck at 3100 feet AGL
Weather: BR  (mist)

Forecast for: KSUX (SIOUX CITY , IA, US)
Text: KSUX 231123Z 2312/2412 31008KT P6SM FEW210
Forecast period: 1200 to 1700 UTC 23 January 2019
Forecast type: FROM: standard forecast or significant change
Winds: from the NW (310 degrees) at 9 MPH (8 knots; 4.1 m/s)
Visibility: 6 or more miles 10+ km)
Ceiling: at least 12,000 feet AGL
Clouds: few clouds at 21000 feet AGL
Weather: no significant weather forecast for this period
Text: FM231700 24008KT P6SM FEW250
Forecast period: 1700 UTC 23 January 2019 to 0300 UTC 24 January 2019
Forecast type: FROM: standard forecast or significant change
Winds: from the WSW (240 degrees) at 9 MPH (8 knots; 4.1 m/s)
Visibility: 6 or more miles 10+ km)
Ceiling: at least 12,000 feet AGL
Clouds: few clouds at 25000 feet AGL
Weather: no significant weather forecast for this period
Text: FM240300 31010KT P6SM SCT250
Forecast period: 0300 to 0600 UTC 24 January 2019
Forecast type: FROM: standard forecast or significant change
Winds: from the NW (310 degrees) at 12 MPH (10 knots; 5.1 m/s)
Visibility: 6 or more miles 10+ km)
Ceiling: at least 12,000 feet AGL
Clouds: scattered clouds at 25000 feet AGL
Weather: no significant weather forecast for this period
Text: FM240600 32012G17KT P6SM BKN200
Forecast period: 0600 to 0800 UTC 24 January 2019
Forecast type: FROM: standard forecast or significant change
Winds: from the NW (320 degrees) at 14 MPH (12 knots; 6.2 m/s)
gusting to 20 MPH (17 knots; 8.7 m/s)
Visibility: 6 or more miles 10+ km)
Ceiling: 20000 feet AGL
Clouds: broken clouds at 20000 feet AGL
Weather: no significant weather forecast for this period
Text: FM240800 33017G27KT P6SM BKN040
Forecast period: 0800 to 0900 UTC 24 January 2019
Forecast type: FROM: standard forecast or significant change
Winds: from the NNW (330 degrees) at 20 MPH (17 knots; 8.7 m/s)
gusting to 31 MPH (27 knots; 13.9 m/s)
Visibility: 6 or more miles 10+ km)
Ceiling: 4000 feet AGL
Clouds: broken clouds at 4000 feet AGL
Weather: no significant weather forecast for this period
Text: FM240900 33019G34KT P6SM OVC025
Forecast period: 0900 to 1200 UTC 24 January 2019
Forecast type: FROM: standard forecast or significant change
Winds: from the NNW (330 degrees) at 22 MPH (19 knots; 9.8 m/s)
gusting to 39 MPH (34 knots; 17.5 m/s)
Visibility: 6 or more miles 10+ km)
Ceiling: 2500 feet AGL
Clouds: overcast cloud deck at 2500 feet AGL
Weather: no significant weather forecast for this period
Text: PROB30 2409/2412 6SM -SHSN
Forecast period: 0900 to 1200 UTC 24 January 2019
Forecast type: PROBABLE: 30 percent likelihood of the following during this time
Visibility: 6 miles (10 km)
Ceiling: unknown
Clouds: missing
Weather: -SHSN  (light snow showers)